createdAt,value
2016-07-30T16:34:46.974Z,83.91
2016-07-30T16:35:47.213Z,83.33
2016-07-30T16:36:47.032Z,82.75
2016-07-30T16:37:47.057Z,82.46
2016-07-30T16:38:47.089Z,83.04
2016-07-30T16:39:47.123Z,83.33
2016-07-30T16:40:46.489Z,82.75
2016-07-30T16:41:47.161Z,81.88
2016-07-30T16:42:47.254Z,81.78
2016-07-30T16:43:46.518Z,82.26
2016-07-30T16:44:47.257Z,83.14
2016-07-30T16:45:47.263Z,83.91
2016-07-30T16:46:47.299Z,84.2
2016-07-30T16:47:47.329Z,83.67
2016-07-30T16:48:47.337Z,81.55
2016-07-30T16:49:47.361Z,82.9
2016-07-30T16:50:46.692Z,83.09
2016-07-30T16:51:47.476Z,84.16
2016-07-30T16:52:47.441Z,85.89
2016-07-30T16:53:46.763Z,81.07
2016-07-30T16:54:47.483Z,81.93
2016-07-30T16:55:47.500Z,83.15
2016-07-30T16:56:47.531Z,82.53
2016-07-30T16:57:46.853Z,83.78
2016-07-30T16:58:47.590Z,86.29
2016-07-30T16:59:47.605Z,84.99
2016-07-30T17:00:46.990Z,82.72
2016-07-30T17:01:46.949Z,79.79
2016-07-30T17:02:47.687Z,82.97
2016-07-30T17:03:47.007Z,83.45
2016-07-30T17:04:47.741Z,82.59
2016-07-30T17:05:47.048Z,82.01
2016-07-30T17:06:47.788Z,78.54
2016-07-30T17:07:47.802Z,79.5
2016-07-30T17:08:47.863Z,79.5
2016-07-30T17:09:47.872Z,79.5
2016-07-30T17:10:47.892Z,79.21
2016-07-30T17:11:47.217Z,79.02
2016-07-30T17:12:47.933Z,80.14
2016-07-30T17:13:48.046Z,79.66
2016-07-30T17:14:48.008Z,79.81
2016-07-30T17:15:48.077Z,80.52
2016-07-30T17:16:48.138Z,79.94
2016-07-30T17:17:48.113Z,79.66
2016-07-30T17:18:47.372Z,80.52
2016-07-30T17:19:48.100Z,78.59
2016-07-30T17:20:48.142Z,80.68
2016-07-30T17:21:47.446Z,82.6
2016-07-30T17:22:48.166Z,80.19
2016-07-30T17:23:48.214Z,79.71
2016-07-30T17:24:48.236Z,80.77
2016-07-30T17:25:48.262Z,81.93
2016-07-30T17:26:48.296Z,80.29
2016-07-30T17:27:48.311Z,79.1
2016-07-30T17:28:48.326Z,79.43
2016-07-30T17:29:48.367Z,79.33
2016-07-30T17:30:48.383Z,81.54
2016-07-30T17:31:48.402Z,82.98
2016-07-30T17:32:48.451Z,79.61
2016-07-30T17:33:48.453Z,79.9
2016-07-30T17:34:48.536Z,77.21
2016-07-30T17:35:48.516Z,79.13
2016-07-30T17:36:47.837Z,79.61
2016-07-30T17:37:48.553Z,79.81
2016-07-30T17:38:48.562Z,79.71
2016-07-30T17:39:48.600Z,78.27
2016-07-30T17:40:48.627Z,79.9
2016-07-30T17:41:48.699Z,80.29
2016-07-30T17:42:48.664Z,79.33
2016-07-30T17:43:47.992Z,79.61
2016-07-30T17:44:48.017Z,79.9
2016-07-30T17:45:48.756Z,78.56
2016-07-30T17:46:48.763Z,78.36
2016-07-30T17:47:48.793Z,77.59
2016-07-30T17:48:48.105Z,79.52
2016-07-30T17:49:48.847Z,79.52
2016-07-30T17:50:48.875Z,80.1
2016-07-30T17:51:48.890Z,77.21
2016-07-30T17:52:48.999Z,77.88
2016-07-30T17:53:48.931Z,77.98
2016-07-30T17:54:48.974Z,79.43
2016-07-30T17:55:48.983Z,78.56
2016-07-30T17:56:49.015Z,77.69
2016-07-30T17:57:49.022Z,78.56
2016-07-30T17:58:49.053Z,78.46
2016-07-30T17:59:48.372Z,77.98
2016-07-30T18:00:49.083Z,79.61
2016-07-30T18:01:49.133Z,80.06
2016-07-30T18:02:49.143Z,79.33
2016-07-30T18:03:49.216Z,81.35
2016-07-30T18:04:49.205Z,81.7
2016-07-30T18:05:49.217Z,81.3
2016-07-30T18:06:49.245Z,80.92
2016-07-30T18:07:48.554Z,81.79
2016-07-30T18:08:48.576Z,83.19
2016-07-30T18:09:49.315Z,82.81
2016-07-30T18:10:48.644Z,83.96
2016-07-30T18:11:48.654Z,83.09
2016-07-30T18:12:49.387Z,84.73
2016-07-30T18:13:48.703Z,85.78
2016-07-30T18:14:48.736Z,83.77
2016-07-30T18:15:49.462Z,82.29
2016-07-30T18:16:49.474Z,83.44
2016-07-30T18:17:49.510Z,83.53
2016-07-30T18:18:49.522Z,84.88
2016-07-30T18:19:49.540Z,83.53
2016-07-30T18:20:49.559Z,86.18
2016-07-30T18:21:49.685Z,84.78
2016-07-30T18:22:49.614Z,84.94
2016-07-30T18:23:49.734Z,85.61
2016-07-30T18:24:49.666Z,87.05
2016-07-30T18:25:49.684Z,85.13
2016-07-30T18:26:49.717Z,85.13
2016-07-30T18:27:49.735Z,85.32
2016-07-30T18:28:49.755Z,87.05
2016-07-30T18:29:49.068Z,88.1
2016-07-30T18:30:49.220Z,88.49
2016-07-30T18:31:49.125Z,90.89
2016-07-30T18:32:49.147Z,92.43
2016-07-30T18:33:49.866Z,93.34
2016-07-30T18:34:49.284Z,94.06
2016-07-30T18:35:49.919Z,94.16
2016-07-30T18:36:49.237Z,93.82
2016-07-30T18:37:49.964Z,94.31
2016-07-30T18:38:49.361Z,94.31
2016-07-30T18:39:50.015Z,94.31
2016-07-30T18:40:50.083Z,93.73
2016-07-30T18:41:50.075Z,90.17
2016-07-30T18:42:50.087Z,89.12
2016-07-30T18:43:50.133Z,89.22
2016-07-30T18:44:49.424Z,88.83
2016-07-30T18:45:50.165Z,89.12
2016-07-30T18:46:50.166Z,89.12
2016-07-30T18:47:50.202Z,90.08
2016-07-30T18:48:50.213Z,90.27
2016-07-30T18:49:50.242Z,90.75
2016-07-30T18:50:50.266Z,89.4
2016-07-30T18:51:50.293Z,88.25
2016-07-30T18:52:50.304Z,88.73
2016-07-30T18:53:50.327Z,89.4
2016-07-30T18:54:50.347Z,89.5
2016-07-30T18:55:50.375Z,89.12
2016-07-30T18:56:49.686Z,90.17
2016-07-30T18:57:49.709Z,90.46
2016-07-30T18:58:50.445Z,90.17
2016-07-30T18:59:50.458Z,91.42
2016-07-30T19:00:50.485Z,89.6
2016-07-30T19:01:50.502Z,89.55
2016-07-30T19:02:50.536Z,90.46
2016-07-30T19:03:49.841Z,92.91
2016-07-30T19:04:50.577Z,93.39
2016-07-30T19:05:50.594Z,94.26
2016-07-30T19:06:50.615Z,90.99
2016-07-30T19:07:50.655Z,90.7
2016-07-30T19:08:49.967Z,91.28
2016-07-30T19:09:50.686Z,92.33
2016-07-30T19:10:50.708Z,91.62
2016-07-30T19:11:50.729Z,91.33
2016-07-30T19:12:50.762Z,91.14
2016-07-30T19:13:50.783Z,90.66
2016-07-30T19:14:50.807Z,90.75
2016-07-30T19:15:50.825Z,91.14
2016-07-30T19:16:50.838Z,91.81
2016-07-30T19:17:50.870Z,92.39
2016-07-30T19:18:50.189Z,92
2016-07-30T19:19:50.915Z,92.58
2016-07-30T19:20:50.219Z,94.31
2016-07-30T19:21:50.235Z,94.54
2016-07-30T19:22:50.976Z,94.07
2016-07-30T19:23:50.286Z,93.78
2016-07-30T19:24:51.074Z,93.4
2016-07-30T19:25:51.044Z,95.7
2016-07-30T19:26:50.356Z,95.7
2016-07-30T19:27:50.388Z,96.94
2016-07-30T19:28:51.112Z,96.85
2016-07-30T19:29:50.423Z,95.98
2016-07-30T19:30:51.154Z,94.59
2016-07-30T19:31:51.209Z,95.31
2016-07-30T19:32:51.195Z,96.75
2016-07-30T19:33:51.204Z,98.96
2016-07-30T19:34:51.234Z,99.91
2016-07-30T19:35:51.253Z,99.99
2016-07-30T19:36:51.282Z,99.99
2016-07-30T19:37:51.308Z,99.99
2016-07-30T19:38:50.617Z,99.99
2016-07-30T19:39:50.650Z,99.99
2016-07-30T19:40:51.422Z,99.99
2016-07-30T19:41:51.394Z,99.99
2016-07-30T19:42:50.857Z,99.99
2016-07-30T19:43:51.452Z,99.99
2016-07-30T19:44:50.761Z,99.99
2016-07-30T19:45:50.768Z,99.99
2016-07-30T19:46:51.493Z,99.99
2016-07-30T19:47:51.518Z,99.99
2016-07-30T19:48:51.552Z,99.99
2016-07-30T19:49:51.573Z,99.99
2016-07-30T19:50:50.882Z,99.99
2016-07-30T19:51:51.602Z,99.99
2016-07-30T19:52:51.639Z,99.99
2016-07-30T19:53:51.649Z,99.99
2016-07-30T19:54:50.972Z,99.99
2016-07-30T19:55:51.709Z,99.99
2016-07-30T19:56:51.708Z,99.99
2016-07-30T19:57:51.772Z,99.99
2016-07-30T19:58:51.773Z,99.99
2016-07-30T19:59:51.780Z,99.99
2016-07-30T20:00:51.792Z,99.99
2016-07-30T20:01:51.831Z,99.99
2016-07-30T20:02:51.131Z,99.99
2016-07-30T20:03:51.161Z,99.99
2016-07-30T20:04:51.885Z,99.99
2016-07-30T20:05:51.902Z,99.99
2016-07-30T20:06:52.019Z,99.99
2016-07-30T20:07:51.958Z,99.99
2016-07-30T20:08:52.079Z,99.99
2016-07-30T20:09:51.291Z,99.99
2016-07-30T20:10:52.023Z,99.99
2016-07-30T20:12:52.052Z,99.99
2016-07-30T20:13:52.079Z,99.99
2016-07-30T20:14:52.094Z,99.99
2016-07-30T20:15:52.120Z,99.99
2016-07-30T20:16:52.144Z,99.99
2016-07-30T20:17:52.161Z,99.99
2016-07-30T20:18:52.191Z,99.99
2016-07-30T20:19:52.235Z,99.99
2016-07-30T20:20:52.235Z,99.99
2016-07-30T20:21:51.551Z,99.99
2016-07-30T20:22:52.267Z,99.99
2016-07-30T20:23:52.295Z,99.99
2016-07-30T20:24:52.329Z,99.99
2016-07-30T20:25:52.339Z,99.99
2016-07-30T20:27:52.383Z,99.99
2016-07-30T20:28:52.407Z,99.99
2016-07-30T20:29:52.421Z,99.99
2016-07-30T20:30:52.444Z,99.99
2016-07-30T20:31:51.772Z,99.99
2016-07-30T20:32:52.493Z,99.99
2016-07-30T20:33:52.526Z,99.99
2016-07-30T20:34:52.534Z,99.99
2016-07-30T20:35:52.557Z,99.99
2016-07-30T20:36:52.569Z,99.99
2016-07-30T20:37:51.883Z,99.99
2016-07-30T20:38:52.614Z,99.99
2016-07-30T20:39:52.631Z,99.99
2016-07-30T20:40:52.714Z,99.99
2016-07-30T20:42:52.720Z,99.99
2016-07-30T20:43:52.024Z,99.99
2016-07-30T20:44:52.738Z,99.99
2016-07-30T20:45:52.770Z,99.99
2016-07-30T20:46:52.788Z,99.99
2016-07-30T20:47:52.807Z,99.99
2016-07-30T20:48:52.840Z,99.99
2016-07-30T20:49:52.853Z,99.99
2016-07-30T20:50:52.876Z,99.99
2016-07-30T20:51:52.202Z,99.99
2016-07-30T20:52:52.913Z,99.99
2016-07-30T20:53:52.933Z,99.99
2016-07-30T20:54:52.955Z,99.99
2016-07-30T20:55:53.003Z,99.99
2016-07-30T20:56:52.298Z,99.99
2016-07-30T20:57:53.034Z,99.99
2016-07-30T20:58:53.044Z,99.99
2016-07-30T20:59:52.362Z,99.99
2016-07-30T21:00:53.094Z,99.99
2016-07-30T21:01:53.132Z,99.99
2016-07-30T21:02:53.138Z,99.99
2016-07-30T21:03:53.182Z,99.99
2016-07-30T21:04:53.193Z,99.99
2016-07-30T21:05:52.503Z,99.99
2016-07-30T21:06:52.513Z,99.99
2016-07-30T21:07:53.323Z,99.99
2016-07-30T21:08:53.273Z,99.99
2016-07-30T21:09:53.293Z,99.99
2016-07-30T21:10:52.605Z,99.99
2016-07-30T21:11:53.381Z,99.99
2016-07-30T21:12:53.356Z,99.99
2016-07-30T21:13:52.657Z,99.99
2016-07-30T21:14:53.407Z,99.99
2016-07-30T21:15:53.421Z,99.99
2016-07-30T21:16:52.733Z,99.99
2016-07-30T21:17:52.753Z,99.99
2016-07-30T21:18:53.598Z,99.99
2016-07-30T21:19:53.492Z,99.99
2016-07-30T21:20:53.530Z,99.99
2016-07-30T21:21:53.547Z,99.99
2016-07-30T21:22:53.583Z,99.99
2016-07-30T21:23:53.592Z,99.99
2016-07-30T21:24:53.617Z,99.99
2016-07-30T21:25:53.619Z,99.99
2016-07-30T21:26:53.655Z,99.99
2016-07-30T21:27:53.671Z,99.99
2016-07-30T21:28:52.993Z,99.99
2016-07-30T21:29:53.711Z,99.99
2016-07-30T21:30:53.733Z,99.99
2016-07-30T21:31:53.883Z,99.99
2016-07-30T21:32:53.780Z,99.99
2016-07-30T21:33:53.834Z,99.99
2016-07-30T21:34:53.842Z,99.99
2016-07-30T21:35:53.147Z,99.99
2016-07-30T21:36:53.871Z,99.99
2016-07-30T21:37:53.181Z,99.99
2016-07-30T21:38:53.199Z,99.99
2016-07-30T21:39:53.932Z,99.99
2016-07-30T21:40:54.011Z,99.99
2016-07-30T21:41:53.974Z,99.99
2016-07-30T21:42:53.992Z,99.99
2016-07-30T21:43:54.013Z,99.99
2016-07-30T21:44:54.092Z,99.99
2016-07-30T21:45:54.047Z,99.99
2016-07-30T21:46:54.112Z,99.99
2016-07-30T21:47:53.392Z,99.99
2016-07-30T21:48:54.119Z,99.99
2016-07-30T21:49:54.142Z,99.99
2016-07-30T21:50:54.169Z,99.99
2016-07-30T21:51:54.189Z,99.99
2016-07-30T21:52:54.230Z,99.99
2016-07-30T21:53:54.221Z,99.99
2016-07-30T21:54:54.239Z,99.99
2016-07-30T21:55:54.281Z,99.99
2016-07-30T21:56:54.296Z,99.99
2016-07-30T21:57:54.331Z,99.99
2016-07-30T21:58:54.329Z,99.99
2016-07-30T21:59:54.360Z,99.99
2016-07-30T22:00:54.382Z,99.99
2016-07-30T22:01:53.698Z,99.99
2016-07-30T22:02:54.423Z,99.99
2016-07-30T22:03:54.436Z,99.99
2016-07-30T22:04:54.451Z,99.99
2016-07-30T22:05:54.510Z,99.99
2016-07-30T22:06:54.501Z,99.99
2016-07-30T22:07:54.532Z,99.99
2016-07-30T22:08:54.570Z,99.99
2016-07-30T22:09:54.573Z,99.99
2016-07-30T22:10:53.881Z,99.99
2016-07-30T22:11:53.905Z,99.99
2016-07-30T22:12:54.631Z,99.99
2016-07-30T22:13:54.651Z,99.99
2016-07-30T22:14:54.681Z,99.99
2016-07-30T22:15:53.990Z,99.99
2016-07-30T22:16:54.734Z,99.99
2016-07-30T22:17:54.732Z,99.99
2016-07-30T22:18:54.755Z,99.99
2016-07-30T22:19:54.783Z,99.99
2016-07-30T22:20:54.803Z,99.99
2016-07-30T22:21:54.127Z,99.99
2016-07-30T22:22:54.842Z,99.99
2016-07-30T22:23:54.866Z,99.99
2016-07-30T22:24:54.882Z,99.99
2016-07-30T22:25:54.925Z,99.99
2016-07-30T22:26:54.930Z,99.99
2016-07-30T22:27:54.241Z,99.99
2016-07-30T22:28:55.004Z,99.99
2016-07-30T22:29:54.290Z,99.99
2016-07-30T22:30:54.319Z,99.99
2016-07-30T22:31:54.341Z,99.99
2016-07-30T22:32:54.343Z,99.99
2016-07-30T22:33:54.366Z,99.99
2016-07-30T22:34:54.403Z,99.99
2016-07-30T22:35:55.142Z,99.99
2016-07-30T22:36:54.431Z,99.99
2016-07-30T22:37:55.172Z,99.99
2016-07-30T22:38:55.203Z,99.99
2016-07-30T22:39:55.211Z,99.99
2016-07-30T22:40:55.273Z,99.99
2016-07-30T22:41:54.553Z,99.99
2016-07-30T22:42:54.576Z,99.99
2016-07-30T22:43:55.341Z,99.99
2016-07-30T22:44:55.321Z,99.99
2016-07-30T22:45:55.367Z,99.99
2016-07-30T22:46:55.364Z,99.99
2016-07-30T22:47:55.427Z,99.99
2016-07-30T22:48:55.400Z,99.99
2016-07-30T22:49:55.433Z,99.99
2016-07-30T22:50:55.450Z,99.99
2016-07-30T22:51:55.459Z,99.99
2016-07-30T22:52:55.481Z,99.99
2016-07-30T22:53:55.510Z,99.99
2016-07-30T22:54:55.536Z,99.99
2016-07-30T22:55:54.842Z,99.99
2016-07-30T22:56:55.602Z,99.99
2016-07-30T22:57:54.891Z,99.99
2016-07-30T22:58:55.006Z,99.99
2016-07-30T22:59:54.941Z,99.99
2016-07-30T23:00:54.974Z,99.99
2016-07-30T23:01:54.977Z,99.99
2016-07-30T23:02:55.690Z,99.99
2016-07-30T23:03:55.730Z,99.99
2016-07-30T23:04:55.111Z,99.99
2016-07-30T23:05:55.762Z,99.99
2016-07-30T23:06:55.810Z,99.99
2016-07-30T23:07:55.250Z,99.99
2016-07-30T23:08:55.840Z,99.99
2016-07-30T23:09:55.860Z,99.99
2016-07-30T23:10:55.861Z,99.99
2016-07-30T23:11:55.890Z,99.99
2016-07-30T23:12:55.203Z,99.99
2016-07-30T23:13:55.931Z,99.99
2016-07-30T23:14:55.959Z,99.99
2016-07-30T23:15:55.979Z,99.99
2016-07-30T23:16:55.991Z,99.99
2016-07-30T23:17:55.400Z,99.99
2016-07-30T23:18:55.418Z,99.99
2016-07-30T23:19:56.049Z,99.99
2016-07-30T23:20:56.081Z,99.99
2016-07-30T23:21:56.108Z,99.99
2016-07-30T23:22:55.421Z,99.99
2016-07-30T23:23:56.149Z,99.99
2016-07-30T23:24:55.462Z,99.99
2016-07-30T23:25:56.188Z,99.99
2016-07-30T23:26:56.202Z,99.99
2016-07-30T23:27:56.236Z,99.99
2016-07-30T23:28:56.252Z,99.99
2016-07-30T23:29:56.292Z,99.99
2016-07-30T23:30:56.289Z,99.99
2016-07-30T23:31:56.321Z,99.99
2016-07-30T23:32:56.326Z,99.99
2016-07-30T23:33:56.356Z,99.99
2016-07-30T23:34:56.380Z,99.99
2016-07-30T23:35:55.691Z,99.99
2016-07-30T23:36:55.722Z,99.99
2016-07-30T23:37:56.443Z,99.99
2016-07-30T23:38:56.468Z,99.99
2016-07-30T23:39:55.781Z,99.99
2016-07-30T23:40:55.848Z,99.99
2016-07-30T23:41:56.523Z,99.99
2016-07-30T23:42:56.544Z,99.99
2016-07-30T23:43:56.557Z,99.99
2016-07-30T23:44:56.588Z,99.99
2016-07-30T23:45:56.612Z,99.99
2016-07-30T23:46:56.648Z,99.99
2016-07-30T23:47:56.659Z,99.99
2016-07-30T23:48:56.731Z,99.99
2016-07-30T23:49:56.700Z,99.99
2016-07-30T23:50:56.011Z,99.99
2016-07-30T23:51:56.747Z,99.99
2016-07-30T23:52:56.763Z,99.99
2016-07-30T23:53:56.790Z,99.99
2016-07-30T23:54:56.078Z,99.99
2016-07-30T23:55:56.820Z,99.99
2016-07-30T23:56:56.848Z,99.99
2016-07-30T23:57:56.864Z,99.99
2016-07-30T23:58:56.181Z,99.99
2016-07-30T23:59:56.911Z,99.99
